Airport View

Enter AWOS ICAO identifier for current METAR.

ex. KFNL

KLNK 031454Z 00000KT 10SM CLR 27/22 A3005 RMK AO2 SLP165 T02670222 55003

3 Jul 2020 15:53

Phone: 402-474-9214

Other Area AWOS: KAHQ - KBIE - KMLE - KFET

TAF AMD KLNK 031229Z 0312/0412 VRB06KT P6SM SCT015 BKN040 TEMPO 0312/0314 BKN015 FM031500 10006KT P6SM BKN050 FM031800 10007KT P6SM SCT050 BKN120